createdAt,value
2023-01-17T00:01:18.778Z,101142.00
2023-01-17T00:04:07.333Z,101146.19
2023-01-17T00:06:56.101Z,101139.56
2023-01-17T00:09:44.891Z,101144.56
2023-01-17T00:12:15.427Z,101157.00
2023-01-17T00:14:46.152Z,101154.44
2023-01-17T00:17:16.802Z,101159.06
2023-01-17T00:20:05.620Z,101158.94
2023-01-17T00:22:54.763Z,101164.56
2023-01-17T00:25:51.907Z,101170.22
2023-01-17T00:28:22.280Z,101176.69
2023-01-17T00:30:52.621Z,101179.19
2023-01-17T00:33:24.304Z,101182.94
2023-01-17T00:35:55.405Z,101191.41
2023-01-17T00:38:27.089Z,101195.75
2023-01-17T00:41:03.078Z,101206.56
2023-01-17T00:43:51.795Z,101207.41
2023-01-17T00:46:40.892Z,101208.25
2023-01-17T00:49:29.458Z,101213.00
2023-01-17T00:52:18.121Z,101215.28
2023-01-17T00:55:07.086Z,101222.34
2023-01-17T00:57:55.664Z,101215.28
2023-01-17T01:00:44.234Z,101213.25
2023-01-17T01:03:33.823Z,101226.28
2023-01-17T01:06:25.749Z,101227.75
2023-01-17T01:09:14.453Z,101232.97
2023-01-17T01:12:03.299Z,101231.09
2023-01-17T01:14:52.433Z,101231.91
2023-01-17T01:17:42.367Z,101230.69
2023-01-17T01:20:31.341Z,101229.69
2023-01-17T01:23:23.593Z,101230.31
2023-01-17T01:26:11.911Z,101228.25
2023-01-17T01:29:00.727Z,101246.50
2023-01-17T01:31:50.091Z,101237.00
2023-01-17T01:34:20.947Z,101237.81
2023-01-17T01:36:51.505Z,101243.03
2023-01-17T01:39:22.250Z,101236.59
2023-01-17T01:41:52.863Z,101237.44
2023-01-17T01:44:41.751Z,101249.06
2023-01-17T01:47:17.940Z,101246.22
2023-01-17T01:49:49.978Z,101244.97
2023-01-17T01:52:23.172Z,101245.81
2023-01-17T01:54:53.929Z,101250.16
2023-01-17T01:57:26.169Z,101244.59
2023-01-17T02:00:00.122Z,101241.06
2023-01-17T02:02:31.992Z,101250.63
2023-01-17T02:05:04.601Z,101237.16
2023-01-17T02:07:46.726Z,101238.81
2023-01-17T02:10:17.642Z,101236.75
2023-01-17T02:12:48.699Z,101240.28
2023-01-17T02:15:19.559Z,101245.28
2023-01-17T02:17:58.878Z,101243.41
2023-01-17T02:20:47.718Z,101251.09
2023-01-17T02:23:27.191Z,101237.63
2023-01-17T02:26:06.694Z,101242.63
2023-01-17T02:28:43.317Z,101250.53
2023-01-17T02:31:23.262Z,101246.78
2023-01-17T02:34:03.735Z,101243.91
2023-01-17T02:36:38.243Z,101242.88
2023-01-17T02:39:11.169Z,101241.84
2023-01-17T02:41:46.214Z,101236.44
2023-01-17T02:44:21.245Z,101249.34
2023-01-17T02:46:53.237Z,101244.78
2023-01-17T02:49:27.134Z,101232.13
2023-01-17T02:52:07.548Z,101234.63
2023-01-17T02:54:38.418Z,101246.88
2023-01-17T02:57:09.691Z,101236.09
2023-01-17T02:59:52.686Z,101233.22
2023-01-17T03:02:30.027Z,101230.94
2023-01-17T03:05:27.120Z,101228.06
2023-01-17T03:07:58.032Z,101229.50
2023-01-17T03:10:28.514Z,101225.56
2023-01-17T03:13:00.386Z,101226.22
2023-01-17T03:15:31.022Z,101225.81
2023-01-17T03:18:04.137Z,101221.88
2023-01-17T03:20:34.724Z,101223.34
2023-01-17T03:23:05.809Z,101211.13
2023-01-17T03:25:36.375Z,101215.28
2023-01-17T03:28:07.310Z,101216.75
2023-01-17T03:30:38.026Z,101205.56
2023-01-17T03:33:08.704Z,101205.19
2023-01-17T03:35:39.583Z,101208.09
2023-01-17T03:38:10.224Z,101206.03
2023-01-17T03:40:40.877Z,101202.09
2023-01-17T03:43:11.877Z,101201.91
2023-01-17T03:45:42.411Z,101204.38
2023-01-17T03:48:13.343Z,101199.41
2023-01-17T03:50:43.980Z,101192.75
2023-01-17T03:53:14.744Z,101186.13
2023-01-17T03:55:47.373Z,101189.47
2023-01-17T03:58:18.276Z,101177.59
2023-01-17T04:00:48.912Z,101187.00
2023-01-17T04:03:19.634Z,101181.19
2023-01-17T04:05:50.152Z,101169.75
2023-01-17T04:08:21.015Z,101164.13
2023-01-17T04:10:51.825Z,101164.53
2023-01-17T04:13:22.439Z,101155.00
2023-01-17T04:15:53.210Z,101147.56
2023-01-17T04:18:25.605Z,101146.94
2023-01-17T04:20:56.094Z,101145.91
2023-01-17T04:23:26.684Z,101144.25
2023-01-17T04:25:57.225Z,101138.81
2023-01-17T04:28:28.030Z,101130.09
2023-01-17T04:31:01.717Z,101131.38
2023-01-17T04:33:32.435Z,101120.94
2023-01-17T04:36:03.012Z,101108.47
2023-01-17T04:38:33.681Z,101099.28
2023-01-17T04:41:04.559Z,101105.97
2023-01-17T04:43:36.605Z,101092.66
2023-01-17T04:46:11.399Z,101085.75
2023-01-17T04:48:42.052Z,101079.13
2023-01-17T04:51:12.727Z,101078.69
2023-01-17T04:53:43.880Z,101078.50
2023-01-17T04:56:14.472Z,101068.91
2023-01-17T04:58:45.101Z,101061.41
2023-01-17T05:01:16.357Z,101067.25
2023-01-17T05:03:47.085Z,101055.59
2023-01-17T05:06:17.849Z,101053.94
2023-01-17T05:08:48.704Z,101040.63
2023-01-17T05:11:19.714Z,101036.88
2023-01-17T05:13:51.005Z,101037.28
2023-01-17T05:16:21.942Z,101033.13
2023-01-17T05:18:54.565Z,101031.88
2023-01-17T05:21:25.644Z,101026.47
2023-01-17T05:23:56.174Z,101025.03
2023-01-17T05:26:26.908Z,101019.00
2023-01-17T05:28:57.412Z,101016.72
2023-01-17T05:31:28.109Z,101013.19
2023-01-17T05:33:58.860Z,101005.69
2023-01-17T05:36:29.747Z,101004.03
2023-01-17T05:39:00.898Z,100996.34
2023-01-17T05:41:31.498Z,100990.72
2023-01-17T05:44:01.993Z,100975.34
2023-01-17T05:46:32.934Z,100975.34
2023-01-17T05:49:03.500Z,100976.16
2023-01-17T05:51:34.336Z,100968.41
2023-01-17T05:54:05.613Z,100960.13
2023-01-17T05:56:36.312Z,100953.47
2023-01-17T05:59:06.836Z,100950.53
2023-01-17T06:01:37.502Z,100939.53
2023-01-17T06:04:08.094Z,100934.53
2023-01-17T06:06:38.726Z,100920.84
2023-01-17T06:09:09.492Z,100924.56
2023-01-17T06:11:40.702Z,100913.75
2023-01-17T06:14:11.293Z,100911.47
2023-01-17T06:16:41.917Z,100905.66
2023-01-17T06:19:12.460Z,100891.34
2023-01-17T06:21:43.093Z,100886.56
2023-01-17T06:24:14.365Z,100881.78
2023-01-17T06:26:47.971Z,100883.84
2023-01-17T06:29:18.444Z,100876.38
2023-01-17T06:31:49.318Z,100872.84
2023-01-17T06:34:20.151Z,100868.28
2023-01-17T06:36:50.777Z,100867.88
2023-01-17T06:39:21.427Z,100868.69
2023-01-17T06:41:52.131Z,100869.53
2023-01-17T06:44:22.629Z,100873.47
2023-01-17T06:46:53.836Z,100858.53
2023-01-17T06:49:24.938Z,100855.63
2023-01-17T06:51:55.587Z,100854.56
2023-01-17T06:54:26.312Z,100857.28
2023-01-17T06:56:57.233Z,100854.16
2023-01-17T06:59:28.997Z,100843.16
2023-01-17T07:01:59.777Z,100839.00
2023-01-17T07:04:30.430Z,100827.38
2023-01-17T07:07:01.186Z,100825.72
2023-01-17T07:09:33.151Z,100831.53
2023-01-17T07:12:03.989Z,100826.56
2023-01-17T07:14:34.508Z,100828.63
2023-01-17T07:17:06.068Z,100824.88
2023-01-17T07:19:37.350Z,100836.72
2023-01-17T07:22:12.260Z,100835.25
2023-01-17T07:24:42.976Z,100833.22
2023-01-17T07:27:13.499Z,100837.53
2023-01-17T07:29:44.081Z,100840.88
2023-01-17T07:32:14.658Z,100837.75
2023-01-17T07:34:45.317Z,100832.59
2023-01-17T07:37:15.953Z,100824.91
2023-01-17T07:39:46.508Z,100833.41
2023-01-17T07:42:17.154Z,100821.16
2023-01-17T07:44:48.439Z,100833.41
2023-01-17T07:47:18.942Z,100829.66
2023-01-17T07:49:49.684Z,100824.91
2023-01-17T07:52:20.671Z,100827.81
2023-01-17T07:54:51.568Z,100833.22
2023-01-17T07:57:22.577Z,100824.06
2023-01-17T07:59:53.713Z,100814.72
2023-01-17T08:02:24.917Z,100813.88
2023-01-17T08:04:55.502Z,100815.13
2023-01-17T08:07:25.992Z,100813.22
2023-01-17T08:09:56.906Z,100811.78
2023-01-17T08:12:27.526Z,100817.59
2023-01-17T08:14:58.178Z,100803.25
2023-01-17T08:17:29.950Z,100815.91
2023-01-17T08:20:01.823Z,100812.78
2023-01-17T08:22:32.693Z,100811.13
2023-01-17T08:25:03.456Z,100815.69
2023-01-17T08:27:35.566Z,100808.63
2023-01-17T08:30:07.761Z,100804.06
2023-01-17T08:32:42.304Z,100804.44
2023-01-17T08:35:13.104Z,100809.44
2023-01-17T08:37:43.681Z,100803.59
2023-01-17T08:40:14.644Z,100804.03
2023-01-17T08:42:45.658Z,100799.88
2023-01-17T08:45:16.649Z,100809.19
2023-01-17T08:47:47.178Z,100808.59
2023-01-17T08:50:22.168Z,100816.91
2023-01-17T08:52:54.776Z,100821.69
2023-01-17T08:55:25.385Z,100822.69
2023-01-17T08:57:55.861Z,100828.34
2023-01-17T09:00:26.958Z,100820.66
2023-01-17T09:02:58.011Z,100815.66
2023-01-17T09:05:28.726Z,100818.16
2023-01-17T09:07:59.316Z,100824.78
2023-01-17T09:10:30.504Z,100817.91
2023-01-17T09:13:01.193Z,100818.34
2023-01-17T09:15:32.247Z,100823.75
2023-01-17T09:18:03.034Z,100831.03
2023-01-17T09:20:33.812Z,100841.00
2023-01-17T09:23:05.836Z,100838.50
2023-01-17T09:25:36.508Z,100847.66
2023-01-17T09:28:07.093Z,100844.31
2023-01-17T09:30:37.845Z,100842.00
2023-01-17T09:33:08.567Z,100839.31
2023-01-17T09:35:39.358Z,100850.16
2023-01-17T09:38:10.293Z,100853.50
2023-01-17T09:40:45.528Z,100861.41
2023-01-17T09:43:54.282Z,100862.22
2023-01-17T09:46:27.450Z,100867.63
2023-01-17T09:49:04.717Z,100868.88
2023-01-17T09:51:36.639Z,100877.19
2023-01-17T09:54:07.526Z,100878.66
2023-01-17T09:56:42.176Z,100882.59
2023-01-17T09:59:45.388Z,100921.25
2023-01-17T10:02:19.531Z,100894.81
2023-01-17T10:04:59.491Z,100893.66
2023-01-17T10:07:36.028Z,100902.31
2023-01-17T10:10:12.357Z,100905.94
2023-01-17T10:12:42.995Z,100907.28
2023-01-17T10:15:16.585Z,100911.19
2023-01-17T10:18:05.730Z,100921.16
2023-01-17T10:20:45.579Z,100929.00
2023-01-17T10:23:26.681Z,100929.19
2023-01-17T10:26:00.108Z,100937.28
2023-01-17T10:28:36.886Z,100944.72
2023-01-17T10:31:12.369Z,100940.97
2023-01-17T10:33:50.108Z,100954.28
2023-01-17T10:36:23.436Z,100950.09
2023-01-17T10:38:57.066Z,100951.75
2023-01-17T10:41:37.128Z,100959.69
2023-01-17T10:44:14.257Z,100962.59
2023-01-17T10:46:49.807Z,100972.63
2023-01-17T10:49:22.246Z,100971.78
2023-01-17T10:52:09.794Z,100976.34
2023-01-17T10:55:05.446Z,100857.69
2023-01-17T10:57:45.767Z,100974.69
2023-01-17T11:00:27.138Z,100984.72
2023-01-17T11:02:58.315Z,100983.91
2023-01-17T11:05:31.368Z,100989.53
2023-01-17T11:08:06.892Z,100993.06
2023-01-17T11:10:38.277Z,101000.59
2023-01-17T11:13:21.329Z,100996.00
2023-01-17T11:15:53.600Z,100998.91
2023-01-17T11:18:25.387Z,101000.19
2023-01-17T11:21:10.975Z,101003.97
2023-01-17T11:23:43.731Z,101002.31
2023-01-17T11:26:22.946Z,100997.91
2023-01-17T11:28:54.553Z,100995.44
2023-01-17T11:31:26.899Z,101001.06
2023-01-17T11:34:16.450Z,101011.09
2023-01-17T11:36:48.147Z,101009.44
2023-01-17T11:39:22.568Z,101014.22
2023-01-17T11:41:54.380Z,101019.03
2023-01-17T11:44:30.231Z,101021.75
2023-01-17T11:47:16.009Z,101021.97
2023-01-17T11:49:48.588Z,101020.28
2023-01-17T11:52:27.025Z,101024.28
2023-01-17T11:54:57.909Z,101025.31
2023-01-17T11:57:33.022Z,101037.81
2023-01-17T12:00:42.923Z,101034.50
2023-01-17T12:03:31.931Z,101027.41
2023-01-17T12:06:19.409Z,101045.75
2023-01-17T12:08:52.720Z,101053.28
2023-01-17T12:11:34.209Z,101059.53
2023-01-17T12:14:08.575Z,101062.44
2023-01-17T12:16:45.222Z,101062.44
2023-01-17T12:19:34.333Z,101064.56
2023-01-17T12:22:18.028Z,101074.53
2023-01-17T12:25:08.395Z,101074.78
2023-01-17T12:27:54.758Z,101072.06
2023-01-17T12:30:25.500Z,101077.47
2023-01-17T12:33:14.625Z,101078.31
2023-01-17T12:35:52.647Z,101086.00
2023-01-17T12:38:38.124Z,101087.88
2023-01-17T12:41:18.788Z,101085.38
2023-01-17T12:43:49.505Z,101091.66
2023-01-17T12:46:28.581Z,101098.31
2023-01-17T12:49:13.885Z,101111.25
2023-01-17T12:51:47.381Z,101108.16
2023-01-17T12:54:18.276Z,101120.00
2023-01-17T12:56:58.032Z,101122.09
2023-01-17T12:59:35.199Z,101125.00
2023-01-17T13:02:14.820Z,101127.06
2023-01-17T13:05:05.474Z,101134.59
2023-01-17T13:07:42.480Z,101142.94
2023-01-17T13:10:39.065Z,101153.75
2023-01-17T13:13:37.298Z,101156.91
2023-01-17T13:16:18.219Z,101150.44
2023-01-17T13:18:49.693Z,101166.31
2023-01-17T13:21:29.336Z,101163.81
2023-01-17T13:24:09.631Z,101164.25
2023-01-17T13:26:45.973Z,101158.81
2023-01-17T13:29:31.689Z,101166.72
2023-01-17T13:32:08.449Z,101168.78
2023-01-17T13:34:55.043Z,101172.56
2023-01-17T13:37:35.963Z,101182.53
2023-01-17T13:40:06.705Z,101188.38
2023-01-17T13:42:40.028Z,101192.75
2023-01-17T13:45:11.714Z,101197.53
2023-01-17T13:47:42.830Z,101196.69
2023-01-17T13:50:31.491Z,101205.84
2023-01-17T13:53:02.188Z,101201.88
2023-01-17T13:55:49.240Z,101203.97
2023-01-17T13:58:52.003Z,101210.00
2023-01-17T14:01:44.599Z,101206.28
2023-01-17T14:04:15.825Z,101207.94
2023-01-17T14:06:50.379Z,101204.19
2023-01-17T14:09:40.907Z,101204.19
2023-01-17T14:12:11.592Z,101204.19
2023-01-17T14:14:42.395Z,101194.59
2023-01-17T14:17:18.758Z,101199.56
2023-01-17T14:19:50.948Z,101195.72
2023-01-17T14:22:21.559Z,101203.56
2023-01-17T14:25:13.865Z,101201.59
2023-01-17T14:27:44.614Z,101185.00
2023-01-17T14:30:21.354Z,101203.25
2023-01-17T14:33:04.429Z,101205.69
2023-01-17T14:35:53.012Z,101209.50
2023-01-17T14:38:26.624Z,101195.09
2023-01-17T14:40:59.716Z,101192.53
2023-01-17T14:43:34.372Z,101196.63
2023-01-17T14:46:08.142Z,101202.34
2023-01-17T14:48:41.236Z,101202.53
2023-01-17T14:51:16.546Z,101203.13
2023-01-17T14:54:01.155Z,101211.34
2023-01-17T14:56:32.768Z,101202.16
2023-01-17T14:59:22.683Z,101197.97
2023-01-17T15:02:06.814Z,101202.47
2023-01-17T15:04:40.668Z,101193.06
2023-01-17T15:07:16.725Z,101195.72
2023-01-17T15:09:48.736Z,101198.97
2023-01-17T15:12:20.989Z,101201.41
2023-01-17T15:14:53.334Z,101202.59
2023-01-17T15:17:28.318Z,101201.94
2023-01-17T15:20:03.095Z,101204.19
2023-01-17T15:22:33.915Z,101199.19
2023-01-17T15:25:05.162Z,101199.56
2023-01-17T15:27:35.810Z,101202.44
2023-01-17T15:30:08.226Z,101192.28
2023-01-17T15:32:40.237Z,101196.44
2023-01-17T15:35:29.780Z,101194.84
2023-01-17T15:38:02.692Z,101194.47
2023-01-17T15:40:34.814Z,101197.28
2023-01-17T15:43:07.962Z,101195.03
2023-01-17T15:45:38.752Z,101194.00
2023-01-17T15:48:27.791Z,101188.41
2023-01-17T15:51:01.299Z,101195.03
2023-01-17T15:53:36.672Z,101190.06
2023-01-17T15:56:39.613Z,101184.69
2023-01-17T15:59:44.774Z,101186.16
2023-01-17T16:02:44.970Z,101188.47
2023-01-17T16:05:24.575Z,101185.16
2023-01-17T16:07:55.204Z,101182.25
2023-01-17T16:10:30.336Z,101184.94
2023-01-17T16:13:01.903Z,101184.75
2023-01-17T16:15:32.717Z,101182.72
2023-01-17T16:18:04.601Z,101176.47
2023-01-17T16:20:37.917Z,101173.38
2023-01-17T16:23:08.668Z,101173.59
2023-01-17T16:25:39.934Z,101178.16
2023-01-17T16:28:10.622Z,101178.19
2023-01-17T16:30:41.339Z,101170.31
2023-01-17T16:33:13.884Z,101179.22
2023-01-17T16:35:44.591Z,101178.59
2023-01-17T16:38:20.531Z,101184.81
2023-01-17T16:40:51.120Z,101191.41
2023-01-17T16:43:21.956Z,101184.75
2023-01-17T16:45:54.557Z,101184.09
2023-01-17T16:48:25.377Z,101185.97
2023-01-17T16:51:00.769Z,101190.72
2023-01-17T16:53:31.404Z,101179.50
2023-01-17T16:56:08.166Z,101181.38
2023-01-17T16:58:38.904Z,101181.38
2023-01-17T17:01:14.009Z,101183.59
2023-01-17T17:03:47.557Z,101191.69
2023-01-17T17:06:18.102Z,101188.34
2023-01-17T17:08:49.152Z,101183.16
2023-01-17T17:11:21.226Z,101169.19
2023-01-17T17:13:52.540Z,101169.19
2023-01-17T17:16:25.519Z,101170.41
2023-01-17T17:18:57.969Z,101163.38
2023-01-17T17:21:29.250Z,101168.28
2023-01-17T17:24:00.817Z,101164.59
2023-01-17T17:26:38.109Z,101162.97
2023-01-17T17:29:11.969Z,101159.97
2023-01-17T17:31:43.091Z,101161.88
2023-01-17T17:34:15.061Z,101150.34
2023-01-17T17:36:45.738Z,101152.91
2023-01-17T17:39:17.159Z,101153.34
2023-01-17T17:41:47.797Z,101143.44
2023-01-17T17:44:19.181Z,101162.13
2023-01-17T17:46:52.948Z,101154.63
2023-01-17T17:49:24.311Z,101147.53
2023-01-17T17:51:55.636Z,101149.50
2023-01-17T17:54:27.655Z,101147.00
2023-01-17T17:56:58.592Z,101147.59
2023-01-17T17:59:29.782Z,101148.81
2023-01-17T18:02:01.140Z,101139.44
2023-01-17T18:04:31.871Z,101134.06
2023-01-17T18:07:02.434Z,101140.66
2023-01-17T18:09:33.131Z,101141.84
2023-01-17T18:12:04.847Z,101143.53
2023-01-17T18:14:35.832Z,101139.22
2023-01-17T18:17:06.605Z,101140.13
2023-01-17T18:19:37.697Z,101146.41
2023-01-17T18:22:08.252Z,101142.13
2023-01-17T18:24:38.843Z,101142.34
2023-01-17T18:27:11.782Z,101136.38
2023-01-17T18:29:42.396Z,101131.56
2023-01-17T18:32:14.573Z,101131.69
2023-01-17T18:34:45.203Z,101127.09
2023-01-17T18:37:15.804Z,101126.66
2023-01-17T18:39:46.752Z,101132.00
2023-01-17T18:42:17.278Z,101129.31
2023-01-17T18:44:47.944Z,101124.66
2023-01-17T18:47:18.553Z,101119.00
2023-01-17T18:49:54.892Z,101116.50
2023-01-17T18:52:25.460Z,101104.13
2023-01-17T18:54:57.300Z,101107.09
2023-01-17T18:57:28.431Z,101095.53
2023-01-17T18:59:59.207Z,101098.47
2023-01-17T19:02:29.710Z,101092.47
2023-01-17T19:05:00.558Z,101088.19
2023-01-17T19:07:33.838Z,101092.78
2023-01-17T19:10:04.761Z,101092.53
2023-01-17T19:12:35.238Z,101081.91
2023-01-17T19:15:05.997Z,101078.97
2023-01-17T19:17:36.529Z,101077.03
2023-01-17T19:20:08.521Z,101067.66
2023-01-17T19:22:39.004Z,101065.53
2023-01-17T19:25:09.791Z,101063.44
2023-01-17T19:27:40.380Z,101060.34
2023-01-17T19:30:11.376Z,101062.28
2023-01-17T19:32:42.529Z,101061.53
2023-01-17T19:35:15.448Z,101060.72
2023-01-17T19:37:47.121Z,101063.69
2023-01-17T19:40:18.387Z,101061.41
2023-01-17T19:42:49.396Z,101070.56
2023-01-17T19:45:20.086Z,101066.44
2023-01-17T19:47:50.810Z,101067.69
2023-01-17T19:50:21.401Z,101065.97
2023-01-17T19:52:53.162Z,101057.00
2023-01-17T19:55:27.142Z,101055.72
2023-01-17T19:57:58.098Z,101049.25
2023-01-17T20:00:30.379Z,101054.41
2023-01-17T20:03:01.584Z,101060.97
2023-01-17T20:05:33.838Z,101051.88
2023-01-17T20:08:04.549Z,101054.00
2023-01-17T20:10:35.195Z,101049.06
2023-01-17T20:13:06.304Z,101046.59
2023-01-17T20:15:36.835Z,101050.38
2023-01-17T20:18:07.525Z,101042.72
2023-01-17T20:20:55.809Z,101042.97
2023-01-17T20:23:27.084Z,101045.03
2023-01-17T20:26:00.579Z,101041.66
2023-01-17T20:28:32.115Z,101048.66
2023-01-17T20:31:10.442Z,101044.25
2023-01-17T20:33:45.786Z,101037.13
2023-01-17T20:36:18.062Z,101035.44
2023-01-17T20:38:50.121Z,101040.47
2023-01-17T20:41:24.840Z,101044.44
2023-01-17T20:43:56.857Z,101042.00
2023-01-17T20:46:28.564Z,101045.13
2023-01-17T20:48:59.831Z,101047.25
2023-01-17T20:51:31.761Z,101044.16
2023-01-17T20:54:06.329Z,101041.72
2023-01-17T20:56:38.583Z,101052.50
2023-01-17T20:59:11.095Z,101051.16
2023-01-17T21:01:41.836Z,101053.19
2023-01-17T21:04:12.818Z,101058.47
2023-01-17T21:06:43.998Z,101060.09
2023-01-17T21:09:15.818Z,101064.84
2023-01-17T21:11:46.894Z,101065.47
2023-01-17T21:14:17.565Z,101072.16
2023-01-17T21:16:49.273Z,101075.97
2023-01-17T21:19:20.005Z,101072.69
2023-01-17T21:21:51.588Z,101076.66
2023-01-17T21:24:22.173Z,101067.13
2023-01-17T21:26:53.883Z,101066.78
2023-01-17T21:29:30.129Z,101075.28
2023-01-17T21:32:00.921Z,101071.38
2023-01-17T21:34:34.102Z,101060.34
2023-01-17T21:37:04.845Z,101060.66
2023-01-17T21:39:35.395Z,101058.97
2023-01-17T21:42:06.056Z,101054.69
2023-01-17T21:44:39.434Z,101058.81
2023-01-17T21:47:10.064Z,101055.91
2023-01-17T21:49:40.679Z,101058.03
2023-01-17T21:52:13.294Z,101066.38
2023-01-17T21:55:01.913Z,101070.38
2023-01-17T21:57:50.765Z,101068.13
2023-01-17T22:00:21.349Z,101064.81
2023-01-17T22:02:52.314Z,101065.47
2023-01-17T22:05:23.519Z,101072.16
2023-01-17T22:08:23.141Z,101082.31
2023-01-17T22:10:53.926Z,101085.72
2023-01-17T22:13:24.431Z,101093.72
2023-01-17T22:16:02.245Z,101095.72
2023-01-17T22:18:33.046Z,101090.25
2023-01-17T22:21:08.216Z,101090.91
2023-01-17T22:23:38.944Z,101104.00
2023-01-17T22:26:14.160Z,101107.78
2023-01-17T22:28:44.745Z,101107.38
2023-01-17T22:31:16.860Z,101114.91
2023-01-17T22:33:48.646Z,101119.09
2023-01-17T22:36:19.890Z,101123.91
2023-01-17T22:38:50.481Z,101120.84
2023-01-17T22:41:25.305Z,101126.84
2023-01-17T22:43:58.469Z,101129.06
2023-01-17T22:46:31.113Z,101123.13
2023-01-17T22:49:01.972Z,101129.28
2023-01-17T22:51:32.673Z,101124.66
2023-01-17T22:54:03.689Z,101125.28
2023-01-17T22:56:35.215Z,101122.19
2023-01-17T22:59:09.417Z,101128.88
2023-01-17T23:01:44.034Z,101130.28
2023-01-17T23:04:15.623Z,101138.38
2023-01-17T23:06:46.693Z,101146.47
2023-01-17T23:09:18.786Z,101154.19
2023-01-17T23:11:53.478Z,101155.63
2023-01-17T23:14:25.366Z,101160.00
2023-01-17T23:17:16.012Z,101160.84
2023-01-17T23:19:54.056Z,101168.75
2023-01-17T23:22:24.642Z,101174.97
2023-01-17T23:24:56.424Z,101179.75
2023-01-17T23:27:51.294Z,101181.84
2023-01-17T23:30:26.916Z,101188.72
2023-01-17T23:32:59.090Z,101193.06
2023-01-17T23:35:31.515Z,101190.38
2023-01-17T23:38:20.649Z,101205.38
2023-01-17T23:41:09.396Z,101198.75
2023-01-17T23:43:40.631Z,101197.72
2023-01-17T23:46:13.111Z,101209.97
2023-01-17T23:48:43.811Z,101205.41
2023-01-17T23:51:14.397Z,101217.50
2023-01-17T23:53:45.024Z,101220.81
2023-01-17T23:56:20.234Z,101220.63
2023-01-17T23:58:50.977Z,101216.72
